createdAt,value
2023-05-11T00:00:52.531Z,8.70
2023-05-11T00:03:19.296Z,9.90
2023-05-11T00:05:49.517Z,9.60
2023-05-11T00:08:17.335Z,9.40
2023-05-11T00:10:47.893Z,9.80
2023-05-11T00:13:14.634Z,8.80
2023-05-11T00:15:41.706Z,9.40
2023-05-11T00:18:08.477Z,9.90
2023-05-11T00:20:35.230Z,10.50
2023-05-11T00:23:02.557Z,10.40
2023-05-11T00:25:29.230Z,11.00
2023-05-11T00:27:55.841Z,12.70
2023-05-11T00:30:22.632Z,12.10
2023-05-11T00:32:52.236Z,13.00
2023-05-11T00:35:19.056Z,15.20
2023-05-11T00:37:45.989Z,15.10
2023-05-11T00:40:13.007Z,15.10
2023-05-11T00:42:40.417Z,14.70
2023-05-11T00:45:07.461Z,13.40
2023-05-11T00:47:34.095Z,12.00
2023-05-11T00:50:00.841Z,13.80
2023-05-11T00:52:27.450Z,16.70
2023-05-11T00:54:54.183Z,16.20
2023-05-11T00:57:21.461Z,15.20
2023-05-11T00:59:49.408Z,14.30
2023-05-11T01:02:16.155Z,14.90
2023-05-11T01:04:42.867Z,17.70
2023-05-11T01:07:15.855Z,18.10
2023-05-11T01:09:51.665Z,17.50
2023-05-11T01:12:34.786Z,18.20
2023-05-11T01:15:09.200Z,17.70
2023-05-11T01:18:08.264Z,17.10
2023-05-11T01:20:35.042Z,16.30
2023-05-11T01:23:15.318Z,16.60
2023-05-11T01:26:11.572Z,14.00
2023-05-11T01:29:17.019Z,14.00
2023-05-11T01:31:46.913Z,12.90
2023-05-11T01:34:17.687Z,13.10
2023-05-11T01:36:51.810Z,13.70
2023-05-11T01:39:26.824Z,13.80
2023-05-11T01:41:54.439Z,13.10
2023-05-11T01:44:21.302Z,13.10
2023-05-11T01:46:47.885Z,13.10
2023-05-11T01:49:14.470Z,14.70
2023-05-11T01:51:41.073Z,16.10
2023-05-11T01:54:08.651Z,15.60
2023-05-11T01:59:02.138Z,15.80
2023-05-11T02:01:29.213Z,15.70
2023-05-11T02:03:55.918Z,17.10
2023-05-11T02:06:22.709Z,17.90
2023-05-11T02:08:49.649Z,17.20
2023-05-11T02:11:16.305Z,15.40
2023-05-11T02:13:44.655Z,15.10
2023-05-11T02:16:11.468Z,14.10
2023-05-11T02:18:41.492Z,14.50
2023-05-11T02:21:09.131Z,15.40
2023-05-11T02:23:36.802Z,15.90
2023-05-11T02:26:03.986Z,15.20
2023-05-11T02:28:30.571Z,13.90
2023-05-11T02:31:00.527Z,13.70
2023-05-11T02:33:31.237Z,14.20
2023-05-11T02:35:57.929Z,13.60
2023-05-11T02:38:30.797Z,15.40
2023-05-11T02:40:59.039Z,15.90
2023-05-11T02:43:26.132Z,16.40
2023-05-11T02:46:00.778Z,15.80
2023-05-11T02:48:29.173Z,14.90
2023-05-11T02:50:56.323Z,14.40
2023-05-11T02:53:26.299Z,15.00
2023-05-11T02:55:53.613Z,14.90
2023-05-11T02:58:20.577Z,14.40
2023-05-11T03:00:50.440Z,14.70
2023-05-11T03:03:17.397Z,15.70
2023-05-11T03:05:44.246Z,14.70
2023-05-11T03:08:10.831Z,15.30
2023-05-11T03:10:37.621Z,14.60
2023-05-11T03:13:04.232Z,15.40
2023-05-11T03:15:31.234Z,15.10
2023-05-11T03:17:59.222Z,15.10
2023-05-11T03:20:25.872Z,15.90
2023-05-11T03:22:52.510Z,15.80
2023-05-11T03:25:19.422Z,16.80
2023-05-11T03:27:46.431Z,16.60
2023-05-11T03:32:43.342Z,16.00
2023-05-11T03:35:10.024Z,15.70
2023-05-11T03:37:38.304Z,17.20
2023-05-11T03:40:06.671Z,17.20
2023-05-11T03:42:39.146Z,16.50
2023-05-11T03:45:06.912Z,18.20
2023-05-11T03:47:33.679Z,15.90
2023-05-11T03:50:01.032Z,17.10
2023-05-11T03:52:27.670Z,16.90
2023-05-11T03:54:54.367Z,17.00
2023-05-11T03:57:21.020Z,17.10
2023-05-11T03:59:47.776Z,17.10
2023-05-11T04:02:14.464Z,18.40
2023-05-11T04:04:41.212Z,17.10
2023-05-11T04:07:07.966Z,15.90
2023-05-11T04:09:34.754Z,16.40
2023-05-11T04:12:01.344Z,16.80
2023-05-11T04:14:28.529Z,15.80
2023-05-11T04:16:55.155Z,16.40
2023-05-11T04:19:21.756Z,16.30
2023-05-11T04:21:48.356Z,16.00
2023-05-11T04:24:15.006Z,16.40
2023-05-11T04:26:41.651Z,15.60
2023-05-11T04:29:09.786Z,15.40
2023-05-11T04:31:36.502Z,13.30
2023-05-11T04:34:07.363Z,13.60
2023-05-11T04:36:34.940Z,14.60
2023-05-11T04:39:01.808Z,14.40
2023-05-11T04:41:28.655Z,14.10
2023-05-11T04:43:57.819Z,15.00
2023-05-11T04:46:24.526Z,14.90
2023-05-11T04:48:51.377Z,14.50
2023-05-11T04:51:18.029Z,13.10
2023-05-11T04:53:45.028Z,13.60
2023-05-11T04:56:12.616Z,14.00
2023-05-11T05:01:05.986Z,11.90
2023-05-11T05:03:32.634Z,10.40
2023-05-11T05:05:59.269Z,11.50
2023-05-11T05:08:26.036Z,10.70
2023-05-11T05:10:52.683Z,11.60
2023-05-11T05:13:19.613Z,12.20
2023-05-11T05:15:46.316Z,12.40
2023-05-11T05:18:14.295Z,10.90
2023-05-11T05:20:42.974Z,10.00
2023-05-11T05:23:09.582Z,9.20
2023-05-11T05:25:36.155Z,9.00
2023-05-11T05:28:02.752Z,9.40
2023-05-11T05:30:29.801Z,9.60
2023-05-11T05:32:56.786Z,9.50
2023-05-11T05:35:24.885Z,8.40
2023-05-11T05:37:51.648Z,7.20
2023-05-11T05:40:18.634Z,7.30
2023-05-11T05:42:48.104Z,6.70
2023-05-11T05:45:19.249Z,6.80
2023-05-11T05:47:46.461Z,7.40
2023-05-11T05:50:13.883Z,7.00
2023-05-11T05:55:08.898Z,5.90
2023-05-11T05:57:35.918Z,5.60
2023-05-11T06:00:03.556Z,7.00
2023-05-11T06:02:39.631Z,6.00
2023-05-11T06:05:07.715Z,6.50
2023-05-11T06:07:34.472Z,6.10
2023-05-11T06:10:01.106Z,5.80
2023-05-11T06:12:28.961Z,6.10
2023-05-11T06:14:55.787Z,6.10
2023-05-11T06:17:22.695Z,6.20
2023-05-11T06:19:50.119Z,6.20
2023-05-11T06:22:17.114Z,5.60
2023-05-11T06:24:43.766Z,5.60
2023-05-11T06:27:10.538Z,4.80
2023-05-11T06:29:38.216Z,5.10
2023-05-11T06:32:06.261Z,5.00
2023-05-11T06:34:33.486Z,5.10
2023-05-11T06:37:01.102Z,4.90
2023-05-11T06:39:27.776Z,4.30
2023-05-11T06:41:56.305Z,4.80
2023-05-11T06:44:23.912Z,4.30
2023-05-11T06:46:52.752Z,5.00
2023-05-11T06:49:19.589Z,4.20
2023-05-11T06:51:46.344Z,4.20
2023-05-11T06:54:12.922Z,4.60
2023-05-11T06:56:39.657Z,4.50
2023-05-11T06:59:06.914Z,4.30
2023-05-11T07:01:33.647Z,4.40
2023-05-11T07:04:00.628Z,4.40
2023-05-11T07:06:27.814Z,4.90
2023-05-11T07:08:54.482Z,4.80
2023-05-11T07:11:22.448Z,4.30
2023-05-11T07:13:49.273Z,4.70
2023-05-11T07:16:16.137Z,4.60
2023-05-11T07:18:42.905Z,4.60
2023-05-11T07:21:09.649Z,5.30
2023-05-11T07:23:36.270Z,4.80
2023-05-11T07:26:08.852Z,5.30
2023-05-11T07:28:38.533Z,5.00
2023-05-11T07:31:05.435Z,4.70
2023-05-11T07:33:34.684Z,4.00
2023-05-11T07:36:01.436Z,4.50
2023-05-11T07:38:28.159Z,3.70
2023-05-11T07:40:54.797Z,4.30
2023-05-11T07:43:21.401Z,4.60
2023-05-11T07:45:48.098Z,4.30
2023-05-11T07:48:15.190Z,4.60
2023-05-11T07:50:42.734Z,4.10
2023-05-11T07:53:09.651Z,4.00
2023-05-11T07:55:36.518Z,3.60
2023-05-11T07:58:03.143Z,4.20
2023-05-11T08:00:29.774Z,3.90
2023-05-11T08:02:56.884Z,4.70
2023-05-11T08:05:23.986Z,4.00
2023-05-11T08:07:50.849Z,4.10
2023-05-11T08:10:17.652Z,3.20
2023-05-11T08:12:44.306Z,3.90
2023-05-11T08:15:11.643Z,3.30
2023-05-11T08:17:38.433Z,3.70
2023-05-11T08:20:06.775Z,3.80
2023-05-11T08:22:33.485Z,4.40
2023-05-11T08:25:00.212Z,3.80
2023-05-11T08:27:26.800Z,3.20
2023-05-11T08:29:53.410Z,3.80
2023-05-11T08:32:20.018Z,3.40
2023-05-11T08:34:46.938Z,3.60
2023-05-11T08:37:13.752Z,3.90
2023-05-11T08:39:47.228Z,3.90
2023-05-11T08:42:18.044Z,3.90
2023-05-11T08:44:44.712Z,4.10
2023-05-11T08:47:22.685Z,4.80
2023-05-11T08:49:52.630Z,3.80
2023-05-11T08:52:19.352Z,3.60
2023-05-11T08:54:47.149Z,3.90
2023-05-11T08:57:14.135Z,4.00
2023-05-11T08:59:42.215Z,3.40
2023-05-11T09:02:10.846Z,3.20
2023-05-11T09:04:37.558Z,3.30
2023-05-11T09:07:04.344Z,2.80
2023-05-11T09:09:31.218Z,3.20
2023-05-11T09:11:58.798Z,3.10
2023-05-11T09:16:54.716Z,3.00
2023-05-11T09:19:21.924Z,3.00
2023-05-11T09:21:48.539Z,3.30
2023-05-11T09:24:15.154Z,3.20
2023-05-11T09:26:41.918Z,3.10
2023-05-11T09:29:08.575Z,3.20
2023-05-11T09:31:42.916Z,2.70
2023-05-11T09:34:16.688Z,3.20
2023-05-11T09:36:44.416Z,2.60
2023-05-11T09:39:15.386Z,3.10
2023-05-11T09:41:42.726Z,3.20
2023-05-11T09:44:13.775Z,2.90
2023-05-11T09:46:41.729Z,2.70
2023-05-11T09:49:08.812Z,3.00
2023-05-11T09:51:40.687Z,3.00
2023-05-11T09:54:18.511Z,2.80
2023-05-11T09:56:49.039Z,2.60
2023-05-11T09:59:17.538Z,2.80
2023-05-11T10:01:44.351Z,2.70
2023-05-11T10:04:22.090Z,3.10
2023-05-11T10:06:53.888Z,2.90
2023-05-11T10:09:24.448Z,3.00
2023-05-11T10:11:51.085Z,3.00
2023-05-11T10:14:17.829Z,2.70
2023-05-11T10:16:44.556Z,2.90
2023-05-11T10:19:11.680Z,2.80
2023-05-11T10:21:39.882Z,2.90
2023-05-11T10:24:07.669Z,2.80
2023-05-11T10:26:34.446Z,2.80
2023-05-11T10:29:01.412Z,2.60
2023-05-11T10:31:29.124Z,3.10
2023-05-11T10:33:57.246Z,2.80
2023-05-11T10:36:24.307Z,3.00
2023-05-11T10:38:51.412Z,3.10
2023-05-11T10:41:41.441Z,3.10
2023-05-11T10:44:20.305Z,3.20
2023-05-11T10:47:12.142Z,3.10
2023-05-11T10:49:49.404Z,2.80
2023-05-11T10:52:55.835Z,2.90
2023-05-11T10:55:38.657Z,2.70
2023-05-11T10:58:10.895Z,3.10
2023-05-11T11:00:55.916Z,3.10
2023-05-11T11:03:22.629Z,3.00
2023-05-11T11:05:49.286Z,2.70
2023-05-11T11:08:16.110Z,2.90
2023-05-11T11:10:46.537Z,2.60
2023-05-11T11:13:14.050Z,3.00
2023-05-11T11:15:56.756Z,3.20
2023-05-11T11:18:24.219Z,2.70
2023-05-11T11:23:44.923Z,3.20
2023-05-11T11:26:15.326Z,2.60
2023-05-11T11:28:54.417Z,3.20
2023-05-11T11:31:34.436Z,2.90
2023-05-11T11:34:29.477Z,3.10
2023-05-11T11:36:56.087Z,3.90
2023-05-11T11:39:22.881Z,3.10
2023-05-11T11:42:02.868Z,3.10
2023-05-11T11:44:29.662Z,2.70
2023-05-11T11:47:15.689Z,3.00
2023-05-11T11:49:43.959Z,3.10
2023-05-11T11:52:14.589Z,2.90
2023-05-11T11:54:43.856Z,3.50
2023-05-11T11:57:49.507Z,2.60
2023-05-11T12:00:16.407Z,2.90
2023-05-11T12:02:44.186Z,3.20
2023-05-11T12:05:19.016Z,2.90
2023-05-11T12:07:47.206Z,2.80
2023-05-11T12:10:14.348Z,2.40
2023-05-11T12:12:45.106Z,3.00
2023-05-11T12:15:25.925Z,2.70
2023-05-11T12:17:52.603Z,2.60
2023-05-11T12:20:19.849Z,2.70
2023-05-11T12:22:48.933Z,3.00
2023-05-11T12:25:18.101Z,2.70
2023-05-11T12:27:55.465Z,3.00
2023-05-11T12:30:26.734Z,2.80
2023-05-11T12:35:25.235Z,2.90
2023-05-11T12:37:52.037Z,2.80
2023-05-11T12:40:19.022Z,3.10
2023-05-11T12:42:59.299Z,3.00
2023-05-11T12:45:26.626Z,2.90
2023-05-11T12:47:55.734Z,2.20
2023-05-11T12:50:22.541Z,3.00
2023-05-11T12:52:50.422Z,2.30
2023-05-11T12:55:28.538Z,2.40
2023-05-11T12:57:58.415Z,2.90
2023-05-11T13:00:25.606Z,2.20
2023-05-11T13:02:53.700Z,2.50
2023-05-11T13:05:24.957Z,2.60
2023-05-11T13:08:04.853Z,2.90
2023-05-11T13:10:32.222Z,2.70
2023-05-11T13:12:59.495Z,2.70
2023-05-11T13:15:28.513Z,3.00
2023-05-11T13:17:57.155Z,2.80
2023-05-11T13:20:33.514Z,2.90
2023-05-11T13:23:10.114Z,2.70
2023-05-11T13:25:45.955Z,2.80
2023-05-11T13:28:14.481Z,3.10
2023-05-11T13:30:41.592Z,2.70
2023-05-11T13:33:08.333Z,2.80
2023-05-11T13:35:39.187Z,3.10
2023-05-11T13:38:05.860Z,2.40
2023-05-11T13:40:32.531Z,2.40
2023-05-11T13:43:00.405Z,2.40
2023-05-11T13:45:27.369Z,2.20
2023-05-11T13:47:55.461Z,2.90
2023-05-11T13:50:26.188Z,2.50
2023-05-11T13:52:53.305Z,2.60
2023-05-11T13:55:21.108Z,2.40
2023-05-11T13:57:48.340Z,2.60
2023-05-11T14:00:16.050Z,2.60
2023-05-11T14:05:10.287Z,2.30
2023-05-11T14:07:47.171Z,2.60
2023-05-11T14:10:16.350Z,2.60
2023-05-11T14:12:43.294Z,2.60
2023-05-11T14:15:10.372Z,2.60
2023-05-11T14:17:37.229Z,2.80
2023-05-11T14:20:05.311Z,2.70
2023-05-11T14:22:31.977Z,2.50
2023-05-11T14:24:58.666Z,2.70
2023-05-11T14:27:25.297Z,2.50
2023-05-11T14:29:52.330Z,2.60
2023-05-11T14:32:19.506Z,2.60
2023-05-11T14:34:46.835Z,2.50
2023-05-11T14:37:13.486Z,2.70
2023-05-11T14:39:41.072Z,2.60
2023-05-11T14:42:08.416Z,3.00
2023-05-11T14:44:35.178Z,2.80
2023-05-11T14:47:01.875Z,2.60
2023-05-11T14:49:28.878Z,2.60
2023-05-11T14:51:56.712Z,2.20
2023-05-11T14:54:23.496Z,2.50
2023-05-11T14:56:54.172Z,2.50
2023-05-11T14:59:24.432Z,2.70
2023-05-11T15:01:51.099Z,2.50
2023-05-11T15:04:18.715Z,2.30
2023-05-11T15:06:45.410Z,2.80
2023-05-11T15:09:12.136Z,2.30
2023-05-11T15:11:38.743Z,2.30
2023-05-11T15:14:06.409Z,2.10
2023-05-11T15:16:33.085Z,2.40
2023-05-11T15:19:00.023Z,2.30
2023-05-11T15:21:27.270Z,2.50
2023-05-11T15:23:54.448Z,2.50
2023-05-11T15:26:22.384Z,2.90
2023-05-11T15:28:49.087Z,2.70
2023-05-11T15:31:15.956Z,2.50
2023-05-11T15:33:43.116Z,2.20
2023-05-11T15:36:13.856Z,2.60
2023-05-11T15:38:41.177Z,2.50
2023-05-11T15:41:07.946Z,2.40
2023-05-11T15:43:35.164Z,2.30
2023-05-11T15:46:03.681Z,2.50
2023-05-11T15:48:30.568Z,2.60
2023-05-11T15:50:59.205Z,2.30
2023-05-11T15:53:26.066Z,2.40
2023-05-11T15:55:55.555Z,2.80
2023-05-11T15:58:22.942Z,2.30
2023-05-11T16:00:49.837Z,2.10
2023-05-11T16:03:16.984Z,2.00
2023-05-11T16:05:44.745Z,2.40
2023-05-11T16:08:11.443Z,2.10
2023-05-11T16:10:38.464Z,2.30
2023-05-11T16:13:05.312Z,2.50
2023-05-11T16:15:32.115Z,2.50
2023-05-11T16:17:58.919Z,2.50
2023-05-11T16:22:53.749Z,2.90
2023-05-11T16:25:21.058Z,2.80
2023-05-11T16:27:47.664Z,3.20
2023-05-11T16:30:22.393Z,2.40
2023-05-11T16:32:51.596Z,3.00
2023-05-11T16:35:18.446Z,3.70
2023-05-11T16:37:46.806Z,4.60
2023-05-11T16:40:13.605Z,5.60
2023-05-11T16:42:40.206Z,5.50
2023-05-11T16:45:07.483Z,4.40
2023-05-11T16:47:34.199Z,3.80
2023-05-11T16:50:00.984Z,3.20
2023-05-11T16:52:27.723Z,3.60
2023-05-11T16:54:55.320Z,3.40
2023-05-11T16:57:25.225Z,3.50
2023-05-11T16:59:52.098Z,62.20
2023-05-11T17:02:20.022Z,51.40
2023-05-11T17:06:04.040Z,40.10
2023-05-11T17:08:30.670Z,40.60
2023-05-11T17:10:57.231Z,31.80
2023-05-11T17:13:23.971Z,15.30
2023-05-11T17:15:51.655Z,11.50
2023-05-11T17:18:18.351Z,7.70
2023-05-11T17:20:45.096Z,5.40
2023-05-11T17:23:11.746Z,4.20
2023-05-11T17:25:38.387Z,3.80
2023-05-11T17:28:05.150Z,4.00
2023-05-11T17:30:47.334Z,4.10
2023-05-11T17:33:14.606Z,6.30
2023-05-11T17:35:41.422Z,10.50
2023-05-11T17:38:08.007Z,89.00
2023-05-11T17:40:34.754Z,95.60
2023-05-11T17:43:01.868Z,59.90
2023-05-11T17:45:29.141Z,49.10
2023-05-11T17:47:55.954Z,47.90
2023-05-11T17:50:23.477Z,42.70
2023-05-11T17:52:51.168Z,33.00
2023-05-11T17:55:18.522Z,26.00
2023-05-11T17:57:45.414Z,18.90
2023-05-11T18:00:13.117Z,13.50
2023-05-11T18:02:39.984Z,9.80
2023-05-11T18:05:07.222Z,8.40
2023-05-11T18:07:33.953Z,7.50
2023-05-11T18:10:00.580Z,7.70
2023-05-11T18:12:27.408Z,6.40
2023-05-11T18:14:54.042Z,6.40
2023-05-11T18:17:20.962Z,7.70
2023-05-11T18:19:47.554Z,9.60
2023-05-11T18:22:14.157Z,11.90
2023-05-11T18:24:40.841Z,12.60
2023-05-11T18:27:07.461Z,12.90
2023-05-11T18:29:34.042Z,12.40
2023-05-11T18:32:56.192Z,12.00
2023-05-11T18:35:22.912Z,11.80
2023-05-11T18:37:49.837Z,11.10
2023-05-11T18:40:16.983Z,10.50
2023-05-11T18:42:44.427Z,10.00
2023-05-11T18:45:11.247Z,9.00
2023-05-11T18:47:38.218Z,10.30
2023-05-11T18:50:05.958Z,9.20
2023-05-11T18:52:32.701Z,8.70
2023-05-11T18:54:59.486Z,8.80
2023-05-11T18:57:26.086Z,8.90
2023-05-11T18:59:52.870Z,8.60
2023-05-11T19:02:19.761Z,9.10
2023-05-11T19:07:13.180Z,8.40
2023-05-11T19:09:39.948Z,8.90
2023-05-11T19:12:07.383Z,8.70
2023-05-11T19:14:34.917Z,8.50
2023-05-11T19:17:02.351Z,8.20
2023-05-11T19:19:29.306Z,7.50
2023-05-11T19:21:55.964Z,7.40
2023-05-11T19:24:22.741Z,7.20
2023-05-11T19:26:58.914Z,7.40
2023-05-11T19:29:33.064Z,7.90
2023-05-11T19:31:59.753Z,8.60
2023-05-11T19:34:26.482Z,7.80
2023-05-11T19:36:53.078Z,8.30
2023-05-11T19:39:19.750Z,6.10
2023-05-11T19:41:46.424Z,6.80
2023-05-11T19:44:13.041Z,6.40
2023-05-11T19:46:45.830Z,6.40
2023-05-11T19:49:13.836Z,6.20
2023-05-11T19:51:40.543Z,6.70
2023-05-11T19:54:07.206Z,6.00
2023-05-11T19:56:34.009Z,5.40
2023-05-11T19:59:01.295Z,6.40
2023-05-11T20:01:28.300Z,6.40
2023-05-11T20:03:55.512Z,6.10
2023-05-11T20:06:22.559Z,5.50
2023-05-11T20:08:49.136Z,5.90
2023-05-11T20:11:15.764Z,6.00
2023-05-11T20:13:43.998Z,5.60
2023-05-11T20:16:10.868Z,6.20
2023-05-11T20:18:37.605Z,5.90
2023-05-11T20:21:04.383Z,6.30
2023-05-11T20:23:31.071Z,6.20
2023-05-11T20:25:57.681Z,5.70
2023-05-11T20:28:27.310Z,7.10
2023-05-11T20:30:57.195Z,6.90
2023-05-11T20:35:53.751Z,9.10
2023-05-11T20:38:20.633Z,11.40
2023-05-11T20:40:47.241Z,12.10
2023-05-11T20:43:14.934Z,12.40
2023-05-11T20:45:42.331Z,13.00
2023-05-11T20:48:09.151Z,12.20
2023-05-11T20:50:35.943Z,10.70
2023-05-11T20:53:02.604Z,9.50
2023-05-11T20:55:29.203Z,9.90
2023-05-11T20:57:55.819Z,9.40
2023-05-11T21:00:23.104Z,10.20
2023-05-11T21:05:17.040Z,8.80
2023-05-11T21:09:30.729Z,9.00
2023-05-11T21:11:57.380Z,9.70
2023-05-11T21:14:23.970Z,9.90
2023-05-11T21:16:50.630Z,12.20
2023-05-11T21:19:18.490Z,10.10
2023-05-11T21:21:45.192Z,10.50
2023-05-11T21:24:13.989Z,10.50
2023-05-11T21:26:40.823Z,10.90
2023-05-11T21:29:07.438Z,10.30
2023-05-11T21:31:34.081Z,11.20
2023-05-11T21:34:00.781Z,11.90
2023-05-11T21:36:28.337Z,13.20
2023-05-11T21:41:22.563Z,11.60
2023-05-11T21:43:49.233Z,12.50
2023-05-11T21:46:15.967Z,12.90
2023-05-11T21:48:42.950Z,13.40
2023-05-11T21:51:09.555Z,12.40
2023-05-11T21:53:36.206Z,11.70
2023-05-11T21:56:02.955Z,11.70
2023-05-11T21:58:29.565Z,12.20
2023-05-11T22:00:57.367Z,12.60
2023-05-11T22:03:24.290Z,13.10
2023-05-11T22:05:51.256Z,13.50
2023-05-11T22:08:18.026Z,12.60
2023-05-11T22:10:44.757Z,12.20
2023-05-11T22:13:11.368Z,13.50
2023-05-11T22:15:38.409Z,13.70
2023-05-11T22:18:05.208Z,14.50
2023-05-11T22:20:32.027Z,15.20
2023-05-11T22:22:59.431Z,14.50
2023-05-11T22:25:27.741Z,16.20
2023-05-11T22:27:54.514Z,15.80
2023-05-11T22:30:21.256Z,16.10
2023-05-11T22:32:48.285Z,14.90
2023-05-11T22:35:15.164Z,15.50
2023-05-11T22:37:41.863Z,14.10
2023-05-11T22:40:09.628Z,13.80
2023-05-11T22:42:36.233Z,14.70
2023-05-11T22:45:02.869Z,14.30
2023-05-11T22:47:29.614Z,13.50
2023-05-11T22:49:56.419Z,13.00
2023-05-11T22:52:23.061Z,13.80
2023-05-11T22:54:54.693Z,14.40
2023-05-11T22:57:24.061Z,14.00
2023-05-11T22:59:50.816Z,13.20
2023-05-11T23:02:17.512Z,13.30
2023-05-11T23:04:44.553Z,14.20
2023-05-11T23:07:13.082Z,12.90
2023-05-11T23:09:40.037Z,13.40
2023-05-11T23:12:07.629Z,14.10
2023-05-11T23:17:00.834Z,12.20
2023-05-11T23:19:27.444Z,14.40
2023-05-11T23:21:54.062Z,13.80
2023-05-11T23:24:21.296Z,14.80
2023-05-11T23:26:47.879Z,13.80
2023-05-11T23:29:14.665Z,14.30
2023-05-11T23:31:41.361Z,14.00
2023-05-11T23:34:08.665Z,13.60
2023-05-11T23:36:35.291Z,13.50
2023-05-11T23:39:01.929Z,13.60
2023-05-11T23:41:28.533Z,13.20
2023-05-11T23:43:55.124Z,13.90
2023-05-11T23:46:21.780Z,13.20
2023-05-11T23:48:48.707Z,12.70
2023-05-11T23:51:16.542Z,13.40
2023-05-11T23:53:43.143Z,13.70
2023-05-11T23:56:09.942Z,13.70
2023-05-11T23:58:36.610Z,14.60
